sensor_id;sensor_type;location;lat;lon;timestamp;pressure;altitude;pressure_sealevel;temperature;humidity
38912;BME280;28444;48.056;14.408;2022-07-10T00:01:50;98003.94;;;16.45;96.98
38912;BME280;28444;48.056;14.408;2022-07-10T00:04:16;98000.56;;;16.47;96.94
38912;BME280;28444;48.056;14.408;2022-07-10T00:06:45;98005.81;;;16.43;96.50
38912;BME280;28444;48.056;14.408;2022-07-10T00:09:14;97999.59;;;16.42;97.27
38912;BME280;28444;48.056;14.408;2022-07-10T00:11:41;97998.28;;;16.43;96.81
38912;BME280;28444;48.056;14.408;2022-07-10T00:14:09;98004.19;;;16.49;96.11
38912;BME280;28444;48.056;14.408;2022-07-10T00:16:35;98007.06;;;16.51;96.05
38912;BME280;28444;48.056;14.408;2022-07-10T00:19:02;98000.81;;;16.51;96.20
38912;BME280;28444;48.056;14.408;2022-07-10T00:21:29;98002.41;;;16.54;95.83
38912;BME280;28444;48.056;14.408;2022-07-10T00:23:56;97998.41;;;16.45;95.67
38912;BME280;28444;48.056;14.408;2022-07-10T00:26:22;97994.91;;;16.45;96.00
38912;BME280;28444;48.056;14.408;2022-07-10T00:28:49;97987.75;;;16.51;95.65
38912;BME280;28444;48.056;14.408;2022-07-10T00:31:16;97994.44;;;16.48;95.30
38912;BME280;28444;48.056;14.408;2022-07-10T00:33:43;97986.31;;;16.50;95.18
38912;BME280;28444;48.056;14.408;2022-07-10T00:36:10;97987.03;;;16.51;95.75
38912;BME280;28444;48.056;14.408;2022-07-10T00:38:37;97987.16;;;16.53;95.58
38912;BME280;28444;48.056;14.408;2022-07-10T00:41:04;97980.19;;;16.52;95.30
38912;BME280;28444;48.056;14.408;2022-07-10T00:43:51;97986.09;;;16.58;94.96
38912;BME280;28444;48.056;14.408;2022-07-10T00:46:17;97979.13;;;16.57;95.14
38912;BME280;28444;48.056;14.408;2022-07-10T00:48:47;97976.44;;;16.47;94.89
38912;BME280;28444;48.056;14.408;2022-07-10T00:51:16;97976.69;;;16.51;95.46
38912;BME280;28444;48.056;14.408;2022-07-10T00:53:47;97973.09;;;16.49;95.63
38912;BME280;28444;48.056;14.408;2022-07-10T00:56:19;97975.59;;;16.45;95.61
38912;BME280;28444;48.056;14.408;2022-07-10T00:58:48;97974.88;;;16.44;95.18
38912;BME280;28444;48.056;14.408;2022-07-10T01:01:16;97968.38;;;16.40;95.59
38912;BME280;28444;48.056;14.408;2022-07-10T01:03:44;97968.22;;;16.37;96.01
38912;BME280;28444;48.056;14.408;2022-07-10T01:06:13;97966.22;;;16.17;97.60
38912;BME280;28444;48.056;14.408;2022-07-10T01:08:40;97968.31;;;16.06;99.61
38912;BME280;28444;48.056;14.408;2022-07-10T01:11:08;97968.91;;;16.05;98.75
38912;BME280;28444;48.056;14.408;2022-07-10T01:13:34;97965.69;;;16.08;98.21
38912;BME280;28444;48.056;14.408;2022-07-10T01:16:01;97969.44;;;16.13;97.65
38912;BME280;28444;48.056;14.408;2022-07-10T01:18:28;97968.06;;;16.24;97.54
38912;BME280;28444;48.056;14.408;2022-07-10T01:20:56;97962.09;;;16.27;97.56
38912;BME280;28444;48.056;14.408;2022-07-10T01:23:23;97962.19;;;16.29;96.97
38912;BME280;28444;48.056;14.408;2022-07-10T01:25:50;97959.59;;;16.31;96.61
38912;BME280;28444;48.056;14.408;2022-07-10T01:28:17;97961.88;;;16.35;96.25
38912;BME280;28444;48.056;14.408;2022-07-10T01:30:47;97960.44;;;16.34;96.96
38912;BME280;28444;48.056;14.408;2022-07-10T01:33:15;97966.88;;;16.27;97.37
38912;BME280;28444;48.056;14.408;2022-07-10T01:35:42;97969.28;;;16.32;97.02
38912;BME280;28444;48.056;14.408;2022-07-10T01:38:09;97962.91;;;16.30;97.31
38912;BME280;28444;48.056;14.408;2022-07-10T01:40:36;97961.88;;;16.35;96.36
38912;BME280;28444;48.056;14.408;2022-07-10T01:43:03;97949.41;;;16.34;96.88
38912;BME280;28444;48.056;14.408;2022-07-10T01:45:29;97949.88;;;16.30;97.06
38912;BME280;28444;48.056;14.408;2022-07-10T01:47:56;97956.69;;;16.29;97.70
38912;BME280;28444;48.056;14.408;2022-07-10T01:50:23;97945.53;;;16.27;97.84
38912;BME280;28444;48.056;14.408;2022-07-10T01:52:50;97942.06;;;16.27;98.11
38912;BME280;28444;48.056;14.408;2022-07-10T01:55:17;97942.38;;;16.21;98.41
38912;BME280;28444;48.056;14.408;2022-07-10T01:57:44;97939.94;;;16.16;98.36
38912;BME280;28444;48.056;14.408;2022-07-10T02:00:11;97933.97;;;16.19;98.88
38912;BME280;28444;48.056;14.408;2022-07-10T02:02:38;97925.56;;;16.17;98.32
38912;BME280;28444;48.056;14.408;2022-07-10T02:05:05;97933.84;;;16.17;98.47
38912;BME280;28444;48.056;14.408;2022-07-10T02:07:32;97931.34;;;16.21;98.49
38912;BME280;28444;48.056;14.408;2022-07-10T02:09:59;97926.28;;;16.18;97.96
38912;BME280;28444;48.056;14.408;2022-07-10T02:12:26;97929.19;;;16.20;98.39
38912;BME280;28444;48.056;14.408;2022-07-10T02:14:52;97931.34;;;16.21;98.25
38912;BME280;28444;48.056;14.408;2022-07-10T02:17:19;97930.16;;;16.24;98.15
38912;BME280;28444;48.056;14.408;2022-07-10T02:19:46;97926.44;;;16.20;97.75
38912;BME280;28444;48.056;14.408;2022-07-10T02:22:13;97919.13;;;16.24;98.06
38912;BME280;28444;48.056;14.408;2022-07-10T02:24:39;97915.38;;;16.20;97.45
38912;BME280;28444;48.056;14.408;2022-07-10T02:27:06;97919.19;;;16.15;97.17
38912;BME280;28444;48.056;14.408;2022-07-10T02:29:33;97913.81;;;16.17;96.67
38912;BME280;28444;48.056;14.408;2022-07-10T02:32:00;97908.09;;;16.24;96.30
38912;BME280;28444;48.056;14.408;2022-07-10T02:34:26;97916.75;;;16.30;96.45
38912;BME280;28444;48.056;14.408;2022-07-10T02:36:53;97905.44;;;16.26;96.96
38912;BME280;28444;48.056;14.408;2022-07-10T02:39:20;97907.22;;;16.22;98.00
38912;BME280;28444;48.056;14.408;2022-07-10T02:41:48;97904.63;;;16.24;98.03
38912;BME280;28444;48.056;14.408;2022-07-10T02:44:15;97898.38;;;16.23;97.94
38912;BME280;28444;48.056;14.408;2022-07-10T02:46:42;97895.22;;;16.17;97.90
38912;BME280;28444;48.056;14.408;2022-07-10T02:49:09;97900.75;;;16.17;97.95
38912;BME280;28444;48.056;14.408;2022-07-10T02:51:36;97889.97;;;16.21;97.74
38912;BME280;28444;48.056;14.408;2022-07-10T02:54:02;97897.53;;;16.21;96.95
38912;BME280;28444;48.056;14.408;2022-07-10T02:56:29;97893.44;;;16.22;96.36
38912;BME280;28444;48.056;14.408;2022-07-10T02:58:56;97897.78;;;16.25;95.93
38912;BME280;28444;48.056;14.408;2022-07-10T03:01:23;97888.06;;;16.24;96.01
38912;BME280;28444;48.056;14.408;2022-07-10T03:03:49;97897.16;;;16.26;96.35
38912;BME280;28444;48.056;14.408;2022-07-10T03:06:16;97901.38;;;16.27;96.39
38912;BME280;28444;48.056;14.408;2022-07-10T03:08:43;97899.66;;;16.22;97.60
38912;BME280;28444;48.056;14.408;2022-07-10T03:11:09;97900.53;;;16.25;97.85
38912;BME280;28444;48.056;14.408;2022-07-10T03:13:36;97910.25;;;16.26;96.93
38912;BME280;28444;48.056;14.408;2022-07-10T03:16:03;97906.91;;;16.27;96.84
38912;BME280;28444;48.056;14.408;2022-07-10T03:18:30;97904.41;;;16.31;96.64
38912;BME280;28444;48.056;14.408;2022-07-10T03:20:58;97904.50;;;16.33;96.39
38912;BME280;28444;48.056;14.408;2022-07-10T03:23:24;97913.00;;;16.26;96.40
38912;BME280;28444;48.056;14.408;2022-07-10T03:25:52;97906.50;;;16.21;96.15
38912;BME280;28444;48.056;14.408;2022-07-10T03:28:19;97910.81;;;16.12;96.71
38912;BME280;28444;48.056;14.408;2022-07-10T03:30:45;97900.22;;;16.09;96.83
38912;BME280;28444;48.056;14.408;2022-07-10T03:33:12;97904.53;;;16.12;96.85
38912;BME280;28444;48.056;14.408;2022-07-10T03:35:39;97907.56;;;16.16;95.89
38912;BME280;28444;48.056;14.408;2022-07-10T03:38:06;97908.28;;;16.17;95.85
38912;BME280;28444;48.056;14.408;2022-07-10T03:40:33;97903.63;;;16.19;96.07
38912;BME280;28444;48.056;14.408;2022-07-10T03:43:01;97907.94;;;16.22;96.02
38912;BME280;28444;48.056;14.408;2022-07-10T03:45:27;97909.88;;;16.20;96.60
38912;BME280;28444;48.056;14.408;2022-07-10T03:47:54;97913.22;;;16.18;96.33
38912;BME280;28444;48.056;14.408;2022-07-10T03:50:21;97918.63;;;16.16;96.00
38912;BME280;28444;48.056;14.408;2022-07-10T03:52:48;97920.97;;;16.10;96.47
38912;BME280;28444;48.056;14.408;2022-07-10T03:55:14;97916.03;;;16.08;96.58
38912;BME280;28444;48.056;14.408;2022-07-10T03:57:41;97919.53;;;16.09;96.65
38912;BME280;28444;48.056;14.408;2022-07-10T04:00:21;97910.34;;;16.16;96.71
38912;BME280;28444;48.056;14.408;2022-07-10T04:03:00;97915.25;;;16.18;96.80
38912;BME280;28444;48.056;14.408;2022-07-10T04:05:27;97903.97;;;16.13;96.92
38912;BME280;28444;48.056;14.408;2022-07-10T04:07:55;97904.22;;;16.18;96.64
38912;BME280;28444;48.056;14.408;2022-07-10T04:10:23;97910.00;;;16.22;96.65
38912;BME280;28444;48.056;14.408;2022-07-10T04:12:50;97910.00;;;16.22;96.91
38912;BME280;28444;48.056;14.408;2022-07-10T04:15:18;97908.56;;;16.21;96.80
38912;BME280;28444;48.056;14.408;2022-07-10T04:17:45;97909.13;;;16.19;97.35
38912;BME280;28444;48.056;14.408;2022-07-10T04:20:12;97908.09;;;16.24;97.60
38912;BME280;28444;48.056;14.408;2022-07-10T04:22:39;97918.25;;;16.22;96.79
38912;BME280;28444;48.056;14.408;2022-07-10T04:25:07;97903.75;;;16.21;97.09
38912;BME280;28444;48.056;14.408;2022-07-10T04:27:34;97902.81;;;16.28;97.14
38912;BME280;28444;48.056;14.408;2022-07-10T04:30:02;97905.25;;;16.34;96.89
38912;BME280;28444;48.056;14.408;2022-07-10T04:32:29;97905.72;;;16.30;96.69
38912;BME280;28444;48.056;14.408;2022-07-10T04:34:56;97899.47;;;16.30;96.87
38912;BME280;28444;48.056;14.408;2022-07-10T04:37:22;97900.94;;;16.31;97.08
38912;BME280;28444;48.056;14.408;2022-07-10T04:39:49;97893.16;;;16.39;96.92
38912;BME280;28444;48.056;14.408;2022-07-10T04:42:23;97891.34;;;16.44;96.61
38912;BME280;28444;48.056;14.408;2022-07-10T04:44:50;97890.03;;;16.45;96.38
38912;BME280;28444;48.056;14.408;2022-07-10T04:47:17;97900.59;;;16.48;96.33
38912;BME280;28444;48.056;14.408;2022-07-10T04:49:44;97901.00;;;16.54;95.88
38912;BME280;28444;48.056;14.408;2022-07-10T04:52:11;97901.97;;;16.59;96.04
38912;BME280;28444;48.056;14.408;2022-07-10T04:54:37;97903.19;;;16.68;95.41
38912;BME280;28444;48.056;14.408;2022-07-10T04:57:04;97908.97;;;16.72;94.69
38912;BME280;28444;48.056;14.408;2022-07-10T04:59:31;97902.84;;;16.73;95.25
38912;BME280;28444;48.056;14.408;2022-07-10T05:01:58;97899.78;;;16.79;94.82
38912;BME280;28444;48.056;14.408;2022-07-10T05:04:25;97900.72;;;16.83;94.70
38912;BME280;28444;48.056;14.408;2022-07-10T05:06:51;97895.13;;;16.93;93.96
38912;BME280;28444;48.056;14.408;2022-07-10T05:09:18;97897.03;;;17.02;94.08
38912;BME280;28444;48.056;14.408;2022-07-10T05:11:47;97903.06;;;17.11;94.09
38912;BME280;28444;48.056;14.408;2022-07-10T05:14:14;97904.38;;;17.09;93.15
38912;BME280;28444;48.056;14.408;2022-07-10T05:16:42;97904.34;;;16.98;92.92
38912;BME280;28444;48.056;14.408;2022-07-10T05:19:09;97913.22;;;16.84;92.40
38912;BME280;28444;48.056;14.408;2022-07-10T05:21:36;97911.91;;;16.86;92.58
38912;BME280;28444;48.056;14.408;2022-07-10T05:24:03;97916.91;;;16.77;93.64
38912;BME280;28444;48.056;14.408;2022-07-10T05:26:29;97909.84;;;16.74;93.62
38912;BME280;28444;48.056;14.408;2022-07-10T05:28:56;97910.28;;;16.71;94.31
38912;BME280;28444;48.056;14.408;2022-07-10T05:31:23;97915.00;;;16.80;93.26
38912;BME280;28444;48.056;14.408;2022-07-10T05:33:49;97913.97;;;16.85;93.11
38912;BME280;28444;48.056;14.408;2022-07-10T05:36:17;97912.50;;;16.84;93.01
38912;BME280;28444;48.056;14.408;2022-07-10T05:38:44;97917.66;;;16.78;92.80
38912;BME280;28444;48.056;14.408;2022-07-10T05:41:10;97919.81;;;16.79;91.69
38912;BME280;28444;48.056;14.408;2022-07-10T05:43:37;97918.50;;;16.80;92.71
38912;BME280;28444;48.056;14.408;2022-07-10T05:46:03;97925.81;;;16.76;92.92
38912;BME280;28444;48.056;14.408;2022-07-10T05:48:31;97913.56;;;16.79;92.79
38912;BME280;28444;48.056;14.408;2022-07-10T05:50:57;97918.56;;;16.71;93.41
38912;BME280;28444;48.056;14.408;2022-07-10T05:53:44;97929.63;;;16.71;92.54
38912;BME280;28444;48.056;14.408;2022-07-10T05:56:11;97921.34;;;16.71;93.25
38912;BME280;28444;48.056;14.408;2022-07-10T05:58:37;97922.06;;;16.71;93.00
38912;BME280;28444;48.056;14.408;2022-07-10T06:01:05;97922.91;;;16.74;93.72
38912;BME280;28444;48.056;14.408;2022-07-10T06:03:32;97926.31;;;16.84;93.28
38912;BME280;28444;48.056;14.408;2022-07-10T06:05:58;97927.78;;;16.97;92.45
38912;BME280;28444;48.056;14.408;2022-07-10T06:08:26;97930.91;;;17.03;91.45
38912;BME280;28444;48.056;14.408;2022-07-10T06:10:53;97935.47;;;16.98;92.04
38912;BME280;28444;48.056;14.408;2022-07-10T06:13:20;97928.38;;;16.95;91.23
38912;BME280;28444;48.056;14.408;2022-07-10T06:15:47;97935.59;;;17.00;90.42
38912;BME280;28444;48.056;14.408;2022-07-10T06:18:14;97925.50;;;17.05;91.47
38912;BME280;28444;48.056;14.408;2022-07-10T06:20:40;97923.44;;;16.94;90.07
38912;BME280;28444;48.056;14.408;2022-07-10T06:23:07;97925.97;;;17.01;90.74
38912;BME280;28444;48.056;14.408;2022-07-10T06:25:34;97924.41;;;17.10;89.97
38912;BME280;28444;48.056;14.408;2022-07-10T06:28:00;97921.06;;;17.00;90.42
38912;BME280;28444;48.056;14.408;2022-07-10T06:30:27;97917.09;;;17.03;89.91
38912;BME280;28444;48.056;14.408;2022-07-10T06:32:54;97920.72;;;17.29;88.19
38912;BME280;28444;48.056;14.408;2022-07-10T06:35:20;97917.84;;;17.27;87.13
38912;BME280;28444;48.056;14.408;2022-07-10T06:37:47;97921.94;;;17.26;89.74
38912;BME280;28444;48.056;14.408;2022-07-10T06:40:14;97928.06;;;17.36;89.19
38912;BME280;28444;48.056;14.408;2022-07-10T06:42:41;97930.09;;;17.47;87.90
38912;BME280;28444;48.056;14.408;2022-07-10T06:45:10;97929.03;;;17.41;87.75
38912;BME280;28444;48.056;14.408;2022-07-10T06:47:37;97920.59;;;17.62;85.19
38912;BME280;28444;48.056;14.408;2022-07-10T06:50:25;97921.31;;;17.63;84.82
38912;BME280;28444;48.056;14.408;2022-07-10T06:52:52;97925.06;;;17.55;85.95
38912;BME280;28444;48.056;14.408;2022-07-10T06:55:20;97927.09;;;17.67;85.92
38912;BME280;28444;48.056;14.408;2022-07-10T06:57:47;97936.47;;;17.73;84.95
38912;BME280;28444;48.056;14.408;2022-07-10T07:00:14;97923.22;;;17.72;83.73
38912;BME280;28444;48.056;14.408;2022-07-10T07:02:42;97920.94;;;17.56;85.32
38912;BME280;28444;48.056;14.408;2022-07-10T07:05:09;97921.31;;;17.63;84.78
38912;BME280;28444;48.056;14.408;2022-07-10T07:07:36;97921.94;;;17.61;84.32
38912;BME280;28444;48.056;14.408;2022-07-10T07:10:04;97922.78;;;17.52;85.29
38912;BME280;28444;48.056;14.408;2022-07-10T07:12:30;97915.09;;;17.50;85.69
38912;BME280;28444;48.056;14.408;2022-07-10T07:14:57;97921.56;;;17.31;85.69
38912;BME280;28444;48.056;14.408;2022-07-10T07:17:24;97925.16;;;17.22;86.05
38912;BME280;28444;48.056;14.408;2022-07-10T07:20:00;97923.03;;;17.32;87.73
38912;BME280;28444;48.056;14.408;2022-07-10T07:22:46;97923.03;;;17.32;87.81
38912;BME280;28444;48.056;14.408;2022-07-10T07:25:32;97914.69;;;17.68;86.65
38912;BME280;28444;48.056;14.408;2022-07-10T07:27:59;97919.88;;;17.85;84.77
38912;BME280;28444;48.056;14.408;2022-07-10T07:30:26;97923.84;;;17.82;83.26
38912;BME280;28444;48.056;14.408;2022-07-10T07:32:52;97913.13;;;17.88;83.17
38912;BME280;28444;48.056;14.408;2022-07-10T07:35:19;97910.88;;;18.22;83.94
38912;BME280;28444;48.056;14.408;2022-07-10T07:37:48;97914.06;;;18.42;82.40
38912;BME280;28444;48.056;14.408;2022-07-10T07:40:18;97909.06;;;18.52;81.51
38912;BME280;28444;48.056;14.408;2022-07-10T07:42:46;97908.06;;;18.59;80.50
38912;BME280;28444;48.056;14.408;2022-07-10T07:45:13;97904.34;;;18.55;80.08
38912;BME280;28444;48.056;14.408;2022-07-10T07:47:50;97899.56;;;18.18;81.59
38912;BME280;28444;48.056;14.408;2022-07-10T07:50:19;97896.22;;;18.19;81.14
38912;BME280;28444;48.056;14.408;2022-07-10T07:52:46;97901.97;;;18.23;81.93
38912;BME280;28444;48.056;14.408;2022-07-10T07:55:15;97899.16;;;18.35;78.65
38912;BME280;28444;48.056;14.408;2022-07-10T07:57:42;97901.25;;;18.23;79.05
38912;BME280;28444;48.056;14.408;2022-07-10T08:00:11;97882.03;;;18.39;78.98
38912;BME280;28444;48.056;14.408;2022-07-10T08:02:40;97887.56;;;18.13;78.88
38912;BME280;28444;48.056;14.408;2022-07-10T08:05:07;97893.03;;;18.25;78.84
38912;BME280;28444;48.056;14.408;2022-07-10T08:07:37;97877.44;;;18.18;77.87
38912;BME280;28444;48.056;14.408;2022-07-10T08:10:07;97874.88;;;18.22;78.80
38912;BME280;28444;48.056;14.408;2022-07-10T08:12:34;97875.16;;;18.40;80.33
38912;BME280;28444;48.056;14.408;2022-07-10T08:15:01;97890.19;;;18.74;79.27
38912;BME280;28444;48.056;14.408;2022-07-10T08:17:28;97886.59;;;18.71;77.30
38912;BME280;28444;48.056;14.408;2022-07-10T08:19:54;97888.50;;;18.69;77.09
38912;BME280;28444;48.056;14.408;2022-07-10T08:22:21;97883.91;;;18.73;78.57
38912;BME280;28444;48.056;14.408;2022-07-10T08:24:48;97882.75;;;18.90;79.25
38912;BME280;28444;48.056;14.408;2022-07-10T08:27:15;97884.03;;;18.75;76.77
38912;BME280;28444;48.056;14.408;2022-07-10T08:29:42;97895.75;;;18.74;79.47
38912;BME280;28444;48.056;14.408;2022-07-10T08:32:09;97881.28;;;18.75;78.07
38912;BME280;28444;48.056;14.408;2022-07-10T08:34:36;97883.53;;;18.53;78.24
38912;BME280;28444;48.056;14.408;2022-07-10T08:37:03;97885.59;;;18.53;79.15
38912;BME280;28444;48.056;14.408;2022-07-10T08:39:30;97880.47;;;18.61;75.42
38912;BME280;28444;48.056;14.408;2022-07-10T08:41:58;97877.44;;;18.43;77.99
38912;BME280;28444;48.056;14.408;2022-07-10T08:44:26;97869.56;;;18.51;79.40
38912;BME280;28444;48.056;14.408;2022-07-10T08:46:54;97871.47;;;18.61;78.09
38912;BME280;28444;48.056;14.408;2022-07-10T08:49:28;97862.72;;;18.78;75.48
38912;BME280;28444;48.056;14.408;2022-07-10T08:52:05;97856.16;;;18.85;73.04
38912;BME280;28444;48.056;14.408;2022-07-10T08:54:32;97863.38;;;19.04;74.65
38912;BME280;28444;48.056;14.408;2022-07-10T08:57:02;97856.28;;;19.42;76.08
38912;BME280;28444;48.056;14.408;2022-07-10T08:59:29;97866.25;;;19.75;70.14
38912;BME280;28444;48.056;14.408;2022-07-10T09:01:58;97859.78;;;19.57;71.05
38912;BME280;28444;48.056;14.408;2022-07-10T09:04:26;97857.41;;;19.79;68.80
38912;BME280;28444;48.056;14.408;2022-07-10T09:06:54;97866.50;;;19.65;68.86
38912;BME280;28444;48.056;14.408;2022-07-10T09:09:22;97856.31;;;19.70;69.03
38912;BME280;28444;48.056;14.408;2022-07-10T09:11:58;97858.22;;;19.81;70.89
38912;BME280;28444;48.056;14.408;2022-07-10T09:14:26;97860.69;;;19.75;69.70
38912;BME280;28444;48.056;14.408;2022-07-10T09:17:01;97863.28;;;19.71;70.74
38912;BME280;28444;48.056;14.408;2022-07-10T09:19:28;97862.66;;;19.59;72.46
38912;BME280;28444;48.056;14.408;2022-07-10T09:22:04;97870.91;;;19.43;70.55
38912;BME280;28444;48.056;14.408;2022-07-10T09:27:03;97870.97;;;19.04;71.89
38912;BME280;28444;48.056;14.408;2022-07-10T09:29:31;97876.88;;;18.84;72.56
38912;BME280;28444;48.056;14.408;2022-07-10T09:32:02;97884.59;;;18.86;71.51
38912;BME280;28444;48.056;14.408;2022-07-10T09:34:42;97881.59;;;18.82;72.49
38912;BME280;28444;48.056;14.408;2022-07-10T09:37:27;97882.00;;;18.76;72.09
38912;BME280;28444;48.056;14.408;2022-07-10T09:39:58;97890.13;;;18.86;70.68
38912;BME280;28444;48.056;14.408;2022-07-10T09:42:30;97882.84;;;19.06;72.14
38912;BME280;28444;48.056;14.408;2022-07-10T09:47:40;97881.03;;;19.38;70.65
38912;BME280;28444;48.056;14.408;2022-07-10T09:50:39;97879.22;;;19.29;69.50
38912;BME280;28444;48.056;14.408;2022-07-10T09:53:08;97888.94;;;19.30;68.53
38912;BME280;28444;48.056;14.408;2022-07-10T09:55:38;97876.63;;;19.33;68.37
38912;BME280;28444;48.056;14.408;2022-07-10T09:58:07;97869.03;;;19.61;66.85
38912;BME280;28444;48.056;14.408;2022-07-10T10:00:35;97885.91;;;19.65;64.02
38912;BME280;28444;48.056;14.408;2022-07-10T10:03:10;97880.94;;;19.78;65.82
38912;BME280;28444;48.056;14.408;2022-07-10T10:05:53;97876.97;;;20.10;65.13
38912;BME280;28444;48.056;14.408;2022-07-10T10:08:39;97877.66;;;20.25;63.67
38912;BME280;28444;48.056;14.408;2022-07-10T10:11:13;97887.34;;;20.10;64.93
38912;BME280;28444;48.056;14.408;2022-07-10T10:13:41;97888.00;;;20.08;63.65
38912;BME280;28444;48.056;14.408;2022-07-10T10:16:10;97878.16;;;19.91;65.23
38912;BME280;28444;48.056;14.408;2022-07-10T10:18:37;97875.41;;;19.78;66.11
38912;BME280;28444;48.056;14.408;2022-07-10T10:21:25;97875.06;;;19.99;66.50
38912;BME280;28444;48.056;14.408;2022-07-10T10:23:54;97876.63;;;20.48;66.56
38912;BME280;28444;48.056;14.408;2022-07-10T10:26:22;97871.56;;;19.99;65.39
38912;BME280;28444;48.056;14.408;2022-07-10T10:28:55;97869.84;;;19.78;63.85
38912;BME280;28444;48.056;14.408;2022-07-10T10:31:24;97861.50;;;19.91;63.72
38912;BME280;28444;48.056;14.408;2022-07-10T10:33:54;97859.78;;;20.14;61.80
38912;BME280;28444;48.056;14.408;2022-07-10T10:36:57;97858.34;;;20.42;62.36
38912;BME280;28444;48.056;14.408;2022-07-10T10:39:23;97865.50;;;20.61;63.12
38912;BME280;28444;48.056;14.408;2022-07-10T10:41:52;97874.53;;;20.62;61.05
38912;BME280;28444;48.056;14.408;2022-07-10T10:44:20;97869.44;;;20.27;61.56
38912;BME280;28444;48.056;14.408;2022-07-10T10:50:07;97871.66;;;20.01;62.33
38912;BME280;28444;48.056;14.408;2022-07-10T10:52:35;97868.22;;;20.16;61.20
38912;BME280;28444;48.056;14.408;2022-07-10T10:55:04;97865.81;;;19.94;60.25
38912;BME280;28444;48.056;14.408;2022-07-10T11:00:29;97873.13;;;19.88;61.33
38912;BME280;28444;48.056;14.408;2022-07-10T11:03:12;97876.31;;;19.82;58.39
38912;BME280;28444;48.056;14.408;2022-07-10T11:05:39;97859.06;;;19.70;58.95
38912;BME280;28444;48.056;14.408;2022-07-10T11:08:08;97866.25;;;19.75;57.90
38912;BME280;28444;48.056;14.408;2022-07-10T11:13:18;97858.16;;;19.65;56.81
38912;BME280;28444;48.056;14.408;2022-07-10T11:15:48;97865.22;;;19.82;58.67
38912;BME280;28444;48.056;14.408;2022-07-10T11:18:19;97847.88;;;20.11;59.23
38912;BME280;28444;48.056;14.408;2022-07-10T11:20:51;97851.97;;;20.40;59.29
38912;BME280;28444;48.056;14.408;2022-07-10T11:26:36;97849.06;;;20.22;56.39
38912;BME280;28444;48.056;14.408;2022-07-10T11:29:06;97852.03;;;19.96;56.99
38912;BME280;28444;48.056;14.408;2022-07-10T11:31:34;97864.91;;;19.90;57.14
38912;BME280;28444;48.056;14.408;2022-07-10T11:34:05;97859.66;;;19.82;56.55
38912;BME280;28444;48.056;14.408;2022-07-10T11:36:32;97857.38;;;19.92;57.88
38912;BME280;28444;48.056;14.408;2022-07-10T11:39:07;97847.16;;;20.11;57.80
38912;BME280;28444;48.056;14.408;2022-07-10T11:41:42;97854.56;;;20.36;56.69
38912;BME280;28444;48.056;14.408;2022-07-10T11:44:13;97848.63;;;20.12;54.08
38912;BME280;28444;48.056;14.408;2022-07-10T11:46:41;97857.00;;;19.84;55.17
38912;BME280;28444;48.056;14.408;2022-07-10T11:49:11;97860.50;;;19.85;57.39
38912;BME280;28444;48.056;14.408;2022-07-10T11:51:38;97852.16;;;19.85;57.80
38912;BME280;28444;48.056;14.408;2022-07-10T11:54:14;97844.56;;;20.15;58.67
38912;BME280;28444;48.056;14.408;2022-07-10T11:56:47;97854.69;;;20.38;58.59
38912;BME280;28444;48.056;14.408;2022-07-10T11:59:15;97851.91;;;20.08;55.81
38912;BME280;28444;48.056;14.408;2022-07-10T12:01:47;97842.84;;;20.08;56.36
38912;BME280;28444;48.056;14.408;2022-07-10T12:04:16;97851.34;;;19.82;56.61
38912;BME280;28444;48.056;14.408;2022-07-10T12:06:47;97857.53;;;19.53;56.81
38912;BME280;28444;48.056;14.408;2022-07-10T12:09:18;97858.38;;;19.14;57.40
38912;BME280;28444;48.056;14.408;2022-07-10T12:12:05;97864.00;;;19.16;57.46
38912;BME280;28444;48.056;14.408;2022-07-10T12:14:33;97862.47;;;19.41;58.98
38912;BME280;28444;48.056;14.408;2022-07-10T12:17:00;97867.19;;;19.66;56.32
38912;BME280;28444;48.056;14.408;2022-07-10T12:19:29;97886.38;;;19.34;56.38
38912;BME280;28444;48.056;14.408;2022-07-10T12:22:00;97883.09;;;19.24;57.02
38912;BME280;28444;48.056;14.408;2022-07-10T12:24:28;97867.09;;;19.36;56.45
38912;BME280;28444;48.056;14.408;2022-07-10T12:26:55;97886.38;;;19.20;56.24
38912;BME280;28444;48.056;14.408;2022-07-10T12:29:26;97879.38;;;19.06;57.75
38912;BME280;28444;48.056;14.408;2022-07-10T12:31:57;97885.44;;;19.02;57.37
38912;BME280;28444;48.056;14.408;2022-07-10T12:34:38;97901.34;;;19.15;57.04
38912;BME280;28444;48.056;14.408;2022-07-10T12:37:14;97903.31;;;19.13;56.08
38912;BME280;28444;48.056;14.408;2022-07-10T12:39:49;97899.72;;;19.24;55.94
38912;BME280;28444;48.056;14.408;2022-07-10T12:42:32;97900.06;;;19.44;55.79
38912;BME280;28444;48.056;14.408;2022-07-10T12:45:12;97905.91;;;19.64;54.10
38912;BME280;28444;48.056;14.408;2022-07-10T12:47:48;97898.03;;;19.72;54.73
38912;BME280;28444;48.056;14.408;2022-07-10T12:50:17;97893.38;;;19.90;54.64
38912;BME280;28444;48.056;14.408;2022-07-10T12:52:44;97902.09;;;19.85;53.99
38912;BME280;28444;48.056;14.408;2022-07-10T12:55:19;97904.56;;;19.92;55.76
38912;BME280;28444;48.056;14.408;2022-07-10T12:57:59;97916.59;;;19.56;52.82
38912;BME280;28444;48.056;14.408;2022-07-10T13:00:30;97905.31;;;19.65;53.89
38912;BME280;28444;48.056;14.408;2022-07-10T13:03:10;97913.53;;;19.77;53.91
38912;BME280;28444;48.056;14.408;2022-07-10T13:05:41;97900.56;;;19.82;53.97
38912;BME280;28444;48.056;14.408;2022-07-10T13:08:19;97910.34;;;19.83;52.60
38912;BME280;28444;48.056;14.408;2022-07-10T13:10:49;97906.63;;;19.92;55.24
38912;BME280;28444;48.056;14.408;2022-07-10T13:13:16;97903.59;;;20.15;52.47
38912;BME280;28444;48.056;14.408;2022-07-10T13:15:44;97908.72;;;20.21;53.49
38912;BME280;28444;48.056;14.408;2022-07-10T13:18:19;97910.81;;;19.93;52.03